Time;durP1;ratioP1;P1;durP2;ratioP2;P2;SDS_P1;SDS_P2;PMS_P1;PMS_P2;Temp;Humidity;BMP_temperature;BMP_pressure;BME280_temperature;BME280_humidity;BME280_pressure;Samples;Min_cycle;Max_cycle;Signal;HPM_P1;HPM_P2
2022/09/13 00:01:17;;;;;;;13.30;7.63;;;14.40;1.00;;;;;;5077113;28;20403;-83
2022/09/13 00:10:58;;;;;;;15.80;8.37;;;14.30;1.00;;;;;;5075162;28;20964;-84
2022/09/13 00:17:10;;;;;;;21.70;8.80;;;14.30;1.00;;;;;;5082912;28;20460;-84
2022/09/13 00:19:52;;;;;;;16.73;9.07;;;14.20;1.00;;;;;;5093413;28;20444;-84
2022/09/13 00:22:22;;;;;;;20.50;9.70;;;14.20;1.00;;;;;;5090934;28;20530;-84
2022/09/13 00:25:06;;;;;;;15.57;9.80;;;14.20;1.00;;;;;;5076591;28;20757;-84
2022/09/13 00:27:33;;;;;;;17.27;9.20;;;14.20;1.00;;;;;;5083348;28;20916;-84
2022/09/13 00:30:11;;;;;;;15.63;10.10;;;14.20;1.00;;;;;;5080862;28;20934;-84
2022/09/13 00:32:53;;;;;;;11.80;8.47;;;14.10;1.00;;;;;;5083005;28;20413;-84
2022/09/13 00:38:42;;;;;;;20.83;9.63;;;14.10;1.00;;;;;;5082007;28;20907;-84
2022/09/13 00:45:06;;;;;;;16.63;8.67;;;14.00;1.00;;;;;;5086120;28;20435;-83
2022/09/13 00:47:42;;;;;;;14.17;8.60;;;14.00;1.00;;;;;;5072928;28;20588;-77
2022/09/13 00:50:46;;;;;;;22.13;9.67;;;14.00;1.00;;;;;;5084901;28;20906;-77
2022/09/13 00:53:29;;;;;;;21.00;8.40;;;14.00;1.00;;;;;;5079280;28;20436;-77
2022/09/13 00:56:46;;;;;;;12.60;8.77;;;13.90;1.00;;;;;;5086388;28;20394;-77
2022/09/13 00:59:22;;;;;;;17.60;8.87;;;13.90;1.00;;;;;;5080497;28;20502;-78
2022/09/13 01:01:53;;;;;;;18.30;9.60;;;13.90;1.00;;;;;;5089251;28;20399;-78
2022/09/13 01:04:27;;;;;;;14.13;9.30;;;13.80;1.00;;;;;;5086693;28;20501;-78
2022/09/13 01:07:10;;;;;;;13.63;9.30;;;13.80;1.00;;;;;;5079584;28;20436;-77
2022/09/13 01:09:40;;;;;;;12.63;8.30;;;13.80;1.00;;;;;;5097217;28;20926;-78
2022/09/13 01:12:14;;;;;;;15.60;9.37;;;13.80;1.00;;;;;;5086536;28;20444;-78
2022/09/13 01:14:40;;;;;;;21.03;8.77;;;13.80;1.00;;;;;;5087943;28;20407;-77
2022/09/13 01:17:10;;;;;;;17.03;9.00;;;13.80;1.00;;;;;;5090876;28;20463;-78
2022/09/13 01:19:36;;;;;;;16.07;9.80;;;13.70;1.00;;;;;;5092182;28;20426;-77
2022/09/13 01:22:19;;;;;;;14.80;9.13;;;13.70;1.00;;;;;;5087017;28;20705;-77
2022/09/13 01:25:00;;;;;;;13.90;10.10;;;13.60;1.00;;;;;;5076782;28;20213;-77
2022/09/13 01:28:02;;;;;;;15.97;9.60;;;13.60;1.00;;;;;;5084926;28;20414;-78
2022/09/13 01:30:44;;;;;;;14.60;9.17;;;13.60;1.00;;;;;;5090632;28;20459;-77
2022/09/13 01:33:37;;;;;;;18.20;9.07;;;13.50;1.00;;;;;;5097997;28;20396;-84
2022/09/13 01:36:40;;;;;;;15.70;9.27;;;13.50;1.00;;;;;;5089713;28;20550;-84
2022/09/13 01:39:58;;;;;;;22.30;8.57;;;13.50;1.00;;;;;;5088272;28;20472;-84
2022/09/13 01:42:47;;;;;;;16.30;8.90;;;13.40;1.00;;;;;;5080538;28;20420;-84
2022/09/13 01:45:58;;;;;;;18.87;9.57;;;13.40;1.00;;;;;;5080707;28;20420;-84
2022/09/13 01:48:53;;;;;;;13.60;8.90;;;13.40;1.00;;;;;;5087843;28;20429;-77
2022/09/13 01:51:26;;;;;;;14.80;8.30;;;13.40;1.00;;;;;;5077074;28;20830;-77
2022/09/13 01:54:25;;;;;;;16.20;9.57;;;13.30;1.00;;;;;;5087677;28;20789;-77
2022/09/13 01:57:14;;;;;;;16.30;10.53;;;13.30;1.00;;;;;;5096541;28;20482;-78
2022/09/13 02:00:12;;;;;;;20.03;10.17;;;13.30;1.00;;;;;;5077536;28;20784;-77
2022/09/13 02:09:49;;;;;;;19.90;9.97;;;13.20;1.00;;;;;;5087320;28;20412;-84
2022/09/13 02:12:47;;;;;;;20.27;10.20;;;13.10;1.00;;;;;;5087163;28;20835;-84
2022/09/13 02:15:17;;;;;;;17.90;9.03;;;13.10;1.00;;;;;;5089240;28;20779;-84
2022/09/13 02:18:22;;;;;;;17.30;9.47;;;13.10;1.00;;;;;;5080726;28;20465;-84
2022/09/13 02:21:06;;;;;;;14.27;9.83;;;13.10;1.00;;;;;;5085290;28;20436;-84
2022/09/13 02:24:04;;;;;;;23.00;10.33;;;13.10;1.00;;;;;;5094006;28;20402;-84
2022/09/13 02:27:10;;;;;;;17.20;10.30;;;13.10;1.00;;;;;;5077887;28;20397;-84
2022/09/13 02:30:33;;;;;;;18.93;10.93;;;13.00;1.00;;;;;;5079772;28;20417;-84
2022/09/13 02:33:09;;;;;;;25.87;10.10;;;13.00;1.00;;;;;;5092038;28;20388;-84
2022/09/13 02:36:22;;;;;;;18.43;10.50;;;13.00;1.00;;;;;;5084287;28;20427;-84
2022/09/13 02:42:18;;;;;;;17.37;10.50;;;13.00;1.00;;;;;;5075749;28;20763;-84
2022/09/13 02:44:50;;;;;;;21.50;11.60;;;13.00;1.00;;;;;;5075130;28;20361;-84
2022/09/13 02:47:58;;;;;;;19.70;11.60;;;13.10;1.00;;;;;;5092082;28;20457;-84
2022/09/13 02:50:33;;;;;;;16.90;10.70;;;13.10;1.00;;;;;;5083437;28;20511;-84
2022/09/13 02:56:39;;;;;;;18.10;9.83;;;13.20;1.00;;;;;;5076232;28;20754;-84
2022/09/13 02:59:28;;;;;;;13.13;9.20;;;13.20;1.00;;;;;;5095975;28;20392;-84
2022/09/13 03:02:10;;;;;;;19.10;9.43;;;13.30;1.00;;;;;;5076299;28;20967;-78
2022/09/13 03:04:41;;;;;;;14.53;9.67;;;13.20;1.00;;;;;;5079678;28;20407;-78
2022/09/13 03:07:11;;;;;;;17.30;9.50;;;13.20;1.00;;;;;;5090262;28;20396;-78
2022/09/13 03:09:54;;;;;;;15.60;9.27;;;13.20;1.00;;;;;;5080629;28;20494;-78
2022/09/13 03:12:46;;;;;;;18.37;9.53;;;13.20;1.00;;;;;;5074886;28;20429;-77
2022/09/13 03:15:49;;;;;;;19.93;10.73;;;13.30;1.00;;;;;;5080940;28;20756;-78
2022/09/13 03:18:28;;;;;;;13.53;9.50;;;13.40;1.00;;;;;;5091203;28;20471;-84
2022/09/13 03:21:22;;;;;;;14.40;9.83;;;13.50;1.00;;;;;;5087995;28;20509;-84
2022/09/13 03:24:09;;;;;;;14.90;8.80;;;13.50;1.00;;;;;;5086414;28;20412;-84
2022/09/13 03:27:13;;;;;;;16.67;9.20;;;13.60;1.00;;;;;;5084223;28;20420;-84
2022/09/13 03:30:31;;;;;;;13.23;9.23;;;13.60;1.00;;;;;;5092117;28;20370;-84
2022/09/13 03:33:52;;;;;;;15.73;9.80;;;13.60;1.00;;;;;;5084793;28;20407;-84
2022/09/13 03:36:58;;;;;;;13.37;9.00;;;13.50;1.00;;;;;;5076923;28;20433;-84
2022/09/13 03:40:07;;;;;;;27.90;10.00;;;13.60;1.00;;;;;;5088762;28;20442;-85
2022/09/13 03:42:47;;;;;;;12.90;9.90;;;13.60;1.00;;;;;;5013226;28;20386;-84
2022/09/13 03:45:58;;;;;;;23.33;9.67;;;13.60;1.00;;;;;;5012460;28;20417;-83
2022/09/13 03:48:42;;;;;;;17.50;9.63;;;13.60;1.00;;;;;;5012998;28;20485;-78
2022/09/13 03:51:35;;;;;;;20.30;10.10;;;13.60;1.00;;;;;;5011716;28;20398;-78
2022/09/13 03:54:09;;;;;;;11.93;8.93;;;13.60;1.00;;;;;;5012299;28;20891;-78
2022/09/13 03:57:15;;;;;;;17.60;10.57;;;13.50;1.00;;;;;;5011339;28;20518;-77
2022/09/13 03:59:48;;;;;;;18.10;8.30;;;13.60;1.00;;;;;;4978161;28;20430;-78
2022/09/13 04:02:34;;;;;;;13.43;9.37;;;13.60;1.00;;;;;;4975383;28;20527;-78
2022/09/13 04:08:35;;;;;;;11.90;8.70;;;13.60;1.00;;;;;;4974694;28;20400;-84
2022/09/13 04:11:40;;;;;;;15.27;9.50;;;13.50;1.00;;;;;;4985851;28;20951;-84
2022/09/13 04:14:10;;;;;;;20.17;8.93;;;13.50;1.00;;;;;;4983427;28;20502;-85
2022/09/13 04:23:40;;;;;;;15.33;9.07;;;13.50;1.00;;;;;;5070770;28;20953;-83
2022/09/13 04:29:52;;;;;;;18.67;9.00;;;13.50;1.00;;;;;;5054632;28;20788;-84
2022/09/13 04:32:43;;;;;;;13.00;9.17;;;13.50;1.00;;;;;;5061809;28;20536;-84
2022/09/13 04:35:10;;;;;;;20.27;8.10;;;13.50;1.00;;;;;;5053841;28;20949;-78
2022/09/13 04:37:37;;;;;;;12.87;8.20;;;13.50;1.00;;;;;;5093159;28;20524;-78
2022/09/13 04:43:25;;;;;;;16.20;9.17;;;13.60;1.00;;;;;;5080468;28;20339;-82
2022/09/13 04:49:13;;;;;;;16.30;10.00;;;13.60;1.00;;;;;;5087381;28;20668;-82
2022/09/13 04:51:47;;;;;;;12.10;8.83;;;13.60;1.00;;;;;;5095091;28;20424;-82
2022/09/13 04:55:04;;;;;;;22.43;9.50;;;13.70;1.00;;;;;;5079398;28;20435;-82
2022/09/13 04:57:41;;;;;;;17.90;9.57;;;13.70;1.00;;;;;;5097019;28;20426;-82
2022/09/13 05:03:36;;;;;;;14.93;9.23;;;13.70;1.00;;;;;;5079963;28;20379;-82
2022/09/13 05:09:23;;;;;;;17.97;8.60;;;13.80;1.00;;;;;;5079629;28;20397;-82
2022/09/13 05:12:10;;;;;;;14.13;8.67;;;13.80;1.00;;;;;;5084929;28;20424;-81
2022/09/13 05:14:47;;;;;;;19.27;9.10;;;13.80;1.00;;;;;;5089495;28;20183;-82
2022/09/13 05:17:17;;;;;;;17.13;9.00;;;13.90;1.00;;;;;;5090359;28;20459;-82
2022/09/13 05:19:52;;;;;;;18.83;9.57;;;13.90;1.00;;;;;;5100559;28;20396;-82
2022/09/13 05:22:40;;;;;;;13.03;8.43;;;14.00;1.00;;;;;;5085504;28;20431;-82
2022/09/13 05:25:40;;;;;;;14.17;9.20;;;14.10;1.00;;;;;;5093576;28;20394;-82
2022/09/13 05:31:31;;;;;;;18.00;9.50;;;14.10;1.00;;;;;;5089676;28;20385;-82
2022/09/13 05:34:09;;;;;;;11.63;8.70;;;14.30;1.00;;;;;;5081387;28;20433;-83
2022/09/13 05:36:41;;;;;;;13.80;10.00;;;14.40;1.00;;;;;;5079775;28;20986;-82
2022/09/13 05:39:40;;;;;;;14.30;9.07;;;14.30;1.00;;;;;;5089209;28;20409;-83
2022/09/13 05:45:28;;;;;;;12.60;8.93;;;14.40;1.00;;;;;;5095075;28;20777;-82
2022/09/13 05:48:34;;;;;;;11.47;9.13;;;14.50;1.00;;;;;;5086271;28;20392;-82
2022/09/13 05:51:28;;;;;;;13.20;8.97;;;14.50;1.00;;;;;;5088243;28;20714;-81
2022/09/13 05:54:16;;;;;;;11.37;8.37;;;14.60;1.00;;;;;;5076418;28;20442;-82
2022/09/13 05:57:04;;;;;;;11.93;8.07;;;14.70;1.00;;;;;;5081535;28;21373;-83
2022/09/13 05:59:40;;;;;;;14.77;9.00;;;14.90;1.00;;;;;;5089752;28;20380;-82
2022/09/13 06:02:23;;;;;;;18.80;9.07;;;14.90;1.00;;;;;;5077298;28;20466;-82
2022/09/13 06:08:11;;;;;;;14.03;7.60;;;15.20;1.00;;;;;;5090023;28;20384;-82
2022/09/13 06:10:41;;;;;;;9.60;7.30;;;15.40;1.00;;;;;;5081817;28;20432;-82
2022/09/13 06:13:06;;;;;;;12.97;7.50;;;15.40;1.00;;;;;;5086579;28;20443;-83
2022/09/13 06:15:41;;;;;;;11.53;8.20;;;15.40;1.00;;;;;;5080080;28;20427;-82
2022/09/13 06:18:52;;;;;;;10.63;7.87;;;15.40;1.00;;;;;;5086311;28;20438;-82
2022/09/13 06:21:29;;;;;;;11.63;7.70;;;15.50;1.00;;;;;;5082452;28;20487;-81
2022/09/13 06:23:59;;;;;;;14.17;8.17;;;15.60;1.00;;;;;;5093837;28;20939;-81
2022/09/13 06:26:40;;;;;;;11.60;8.10;;;15.70;1.00;;;;;;5074340;28;21005;-82
2022/09/13 06:29:11;;;;;;;10.03;7.50;;;15.80;1.00;;;;;;5074178;28;20404;-84
2022/09/13 06:31:43;;;;;;;10.90;8.00;;;16.00;1.00;;;;;;5090550;28;20486;-83
2022/09/13 06:34:23;;;;;;;31.40;8.47;;;16.10;1.00;;;;;;5075566;28;20981;-82
2022/09/13 06:36:49;;;;;;;10.77;7.47;;;16.20;1.00;;;;;;5075474;28;20398;-82
2022/09/13 06:39:17;;;;;;;12.03;8.03;;;16.30;1.00;;;;;;5086324;28;20465;-82
2022/09/13 06:41:53;;;;;;;17.67;8.90;;;16.40;1.00;;;;;;5088918;28;20381;-82
2022/09/13 06:44:35;;;;;;;12.10;8.50;;;16.50;1.00;;;;;;5076056;28;20473;-81
2022/09/13 06:47:17;;;;;;;10.13;7.40;;;16.70;1.00;;;;;;5075507;28;20391;-81
2022/09/13 06:49:53;;;;;;;16.90;8.77;;;16.80;1.00;;;;;;5088525;28;20439;-81
2022/09/13 06:52:40;;;;;;;17.53;9.43;;;16.80;1.00;;;;;;5087075;28;20379;-82
2022/09/13 06:55:10;;;;;;;10.27;7.77;;;16.80;1.00;;;;;;5080926;28;20417;-81
2022/09/13 06:57:41;;;;;;;10.20;8.40;;;16.90;1.00;;;;;;5073630;28;20943;-81
2022/09/13 07:00:11;;;;;;;13.43;8.27;;;16.90;1.00;;;;;;5080072;28;20976;-79
2022/09/13 07:02:41;;;;;;;21.13;8.70;;;17.00;1.00;;;;;;5073153;28;20435;-80
2022/09/13 07:05:07;;;;;;;22.93;8.40;;;17.10;1.00;;;;;;5082780;28;20389;-80
2022/09/13 07:07:35;;;;;;;15.20;7.70;;;17.30;1.00;;;;;;5080164;28;20877;-80
2022/09/13 07:10:17;;;;;;;12.47;8.53;;;17.40;1.00;;;;;;5078695;28;20368;-81
2022/09/13 07:12:47;;;;;;;12.30;8.27;;;17.50;1.00;;;;;;5089947;28;21010;-80
2022/09/13 07:15:17;;;;;;;12.00;9.17;;;17.60;1.00;;;;;;5085989;28;20456;-80
2022/09/13 07:18:05;;;;;;;15.27;9.20;;;17.70;1.00;;;;;;5088337;28;20984;-80
2022/09/13 07:20:35;;;;;;;11.77;8.20;;;17.80;1.00;;;;;;5093355;28;20906;-82
2022/09/13 07:23:17;;;;;;;13.30;9.40;;;17.90;1.00;;;;;;5083374;28;20395;-82
2022/09/13 07:25:53;;;;;;;16.67;8.50;;;18.00;1.00;;;;;;5080432;28;20426;-82
2022/09/13 07:28:41;;;;;;;14.53;9.00;;;18.10;1.00;;;;;;5086048;28;20922;-83
2022/09/13 07:31:23;;;;;;;15.70;8.40;;;18.20;1.00;;;;;;5081571;28;20486;-82
2022/09/13 07:34:34;;;;;;;18.40;8.40;;;18.20;1.00;;;;;;5077118;28;20439;-82
2022/09/13 07:37:11;;;;;;;13.00;8.13;;;18.30;1.00;;;;;;5077479;28;20438;-82
2022/09/13 07:39:41;;;;;;;19.13;8.17;;;18.40;1.00;;;;;;5081375;28;20420;-82
2022/09/13 07:42:23;;;;;;;13.30;8.83;;;18.50;1.00;;;;;;5087165;28;20448;-83
2022/09/13 07:45:22;;;;;;;21.10;8.57;;;18.50;1.00;;;;;;5082171;28;20434;-82
2022/09/13 07:47:53;;;;;;;10.33;7.87;;;18.50;1.00;;;;;;5094583;28;20411;-82
2022/09/13 07:50:23;;;;;;;23.43;8.67;;;18.50;1.00;;;;;;5074387;28;20424;-81
2022/09/13 07:53:10;;;;;;;16.43;8.50;;;18.40;1.00;;;;;;5087678;28;20892;-81
2022/09/13 07:55:41;;;;;;;12.47;8.87;;;18.50;1.00;;;;;;5072620;28;20438;-81
2022/09/13 07:58:17;;;;;;;14.17;8.83;;;18.50;1.00;;;;;;5087977;28;20989;-85
2022/09/13 08:04:08;;;;;;;10.97;7.73;;;18.80;1.00;;;;;;5083582;28;20460;-86
2022/09/13 08:07:04;;;;;;;15.60;8.60;;;18.90;1.00;;;;;;5086854;28;20473;-82
2022/09/13 08:09:35;;;;;;;17.23;8.27;;;19.00;1.00;;;;;;5073659;28;20481;-81
2022/09/13 08:12:01;;;;;;;13.37;8.40;;;19.00;1.00;;;;;;5078814;28;20432;-82
2022/09/13 08:14:35;;;;;;;13.47;8.40;;;19.10;1.00;;;;;;5071622;28;20440;-81
2022/09/13 08:17:05;;;;;;;17.20;8.80;;;19.30;1.00;;;;;;5082616;28;20442;-81
2022/09/13 08:19:41;;;;;;;13.90;8.50;;;19.40;1.00;;;;;;5091392;28;20423;-81
2022/09/13 08:22:17;;;;;;;11.67;8.00;;;19.50;1.00;;;;;;5093716;28;20867;-81
2022/09/13 08:25:10;;;;;;;12.80;8.17;;;19.70;1.00;;;;;;5076242;28;20967;-81
2022/09/13 08:27:53;;;;;;;9.93;8.03;;;19.90;1.00;;;;;;5081706;28;20427;-81
2022/09/13 08:30:23;;;;;;;10.90;8.77;;;19.90;1.00;;;;;;5088383;28;20753;-81
2022/09/13 08:32:52;;;;;;;15.53;8.30;;;19.90;1.00;;;;;;5088456;28;20482;-81
2022/09/13 08:35:23;;;;;;;14.53;8.03;;;20.00;1.00;;;;;;5085857;28;20425;-81
2022/09/13 08:38:10;;;;;;;10.93;8.20;;;20.00;1.00;;;;;;5081255;28;20420;-81
2022/09/13 08:40:44;;;;;;;12.87;8.27;;;20.20;1.00;;;;;;5074525;28;20402;-80
2022/09/13 08:43:54;;;;;;;15.80;9.03;;;20.30;1.00;;;;;;5081312;28;20438;-80
2022/09/13 08:46:40;;;;;;;12.50;8.30;;;20.30;1.00;;;;;;5075444;28;20786;-80
2022/09/13 08:49:14;;;;;;;14.70;7.63;;;20.40;1.00;;;;;;5093623;28;20402;-80
2022/09/13 08:52:37;;;;;;;16.20;8.60;;;20.40;1.00;;;;;;5093830;28;20480;-80
2022/09/13 08:55:35;;;;;;;13.77;9.27;;;20.10;1.00;;;;;;5030589;28;20518;-80
2022/09/13 08:58:22;;;;;;;16.93;8.57;;;20.30;1.00;;;;;;5083778;28;20523;-80
2022/09/13 09:01:24;;;;;;;11.47;8.90;;;20.40;1.00;;;;;;5078299;28;20833;-80
2022/09/13 09:04:22;;;;;;;16.27;9.50;;;20.60;1.00;;;;;;5085628;28;20418;-77
2022/09/13 09:07:14;;;;;;;13.13;9.57;;;20.70;1.00;;;;;;5091998;28;21022;-80
2022/09/13 09:10:01;;;;;;;15.03;10.03;;;20.80;1.00;;;;;;5079471;28;20554;-83
2022/09/13 09:12:27;;;;;;;19.30;10.33;;;20.30;1.00;;;;;;5093283;28;20406;-82
2022/09/13 09:15:04;;;;;;;16.93;9.07;;;20.10;1.00;;;;;;5090709;28;20912;-82
2022/09/13 09:17:46;;;;;;;15.40;10.13;;;20.00;1.00;;;;;;5076004;28;20224;-81
2022/09/13 09:20:40;;;;;;;13.83;9.40;;;19.80;1.00;;;;;;5092036;28;20429;-82
2022/09/13 09:23:43;;;;;;;18.93;9.90;;;19.60;1.00;;;;;;5084961;28;20409;-80
2022/09/13 09:26:46;;;;;;;16.00;9.13;;;19.40;1.00;;;;;;5081886;28;20902;-81
2022/09/13 09:29:21;;;;;;;21.53;10.07;;;19.40;1.00;;;;;;5077182;28;20500;-82
2022/09/13 09:32:19;;;;;;;16.70;9.40;;;19.40;1.00;;;;;;5087003;28;20466;-82
2022/09/13 09:34:57;;;;;;;20.73;9.70;;;19.40;1.00;;;;;;5079996;28;20439;-82
2022/09/13 09:37:30;;;;;;;12.97;9.07;;;19.50;1.00;;;;;;5080523;28;20448;-82
2022/09/13 09:46:41;;;;;;;17.77;10.30;;;19.70;1.00;;;;;;5079137;28;20432;-83
2022/09/13 09:52:50;;;;;;;19.33;10.47;;;19.80;1.00;;;;;;5082075;28;20504;-85
2022/09/13 09:55:26;;;;;;;30.97;9.50;;;19.90;1.00;;;;;;5084128;28;20503;-83
2022/09/13 09:58:15;;;;;;;21.30;10.07;;;19.80;1.00;;;;;;5091936;28;20529;-83
2022/09/13 10:07:33;;;;;;;17.30;9.67;;;19.30;1.00;;;;;;5087536;28;20419;-76
2022/09/13 10:10:02;;;;;;;17.70;10.40;;;19.40;1.00;;;;;;5091453;28;20757;-77
2022/09/13 10:12:33;;;;;;;14.63;9.93;;;19.40;1.00;;;;;;5085723;28;20483;-76
2022/09/13 10:15:16;;;;;;;15.57;10.60;;;19.40;1.00;;;;;;5082940;28;20399;-77
2022/09/13 10:18:15;;;;;;;17.00;10.70;;;19.50;1.00;;;;;;5078913;28;21147;-76
2022/09/13 10:20:43;;;;;;;17.53;9.60;;;19.70;1.00;;;;;;5006159;28;20400;-77
2022/09/13 10:23:15;;;;;;;12.13;9.60;;;19.90;1.00;;;;;;5014188;28;20428;-82
2022/09/13 10:26:16;;;;;;;19.57;10.83;;;20.10;1.00;;;;;;5014313;28;20451;-84
2022/09/13 10:29:17;;;;;;;19.13;9.97;;;20.30;1.00;;;;;;4997910;28;20525;-83
2022/09/13 10:31:56;;;;;;;19.30;10.23;;;20.20;1.00;;;;;;5014047;28;20425;-78
2022/09/13 10:34:29;;;;;;;16.17;10.00;;;20.50;1.00;;;;;;5013679;28;20537;-78
2022/09/13 10:37:03;;;;;;;22.23;10.87;;;20.80;1.00;;;;;;5013219;28;20919;-79
2022/09/13 10:39:35;;;;;;;14.03;9.53;;;21.10;1.00;;;;;;4998125;28;20404;-78
2022/09/13 10:42:12;;;;;;;16.07;10.40;;;21.20;1.00;;;;;;5008459;28;20422;-82
2022/09/13 10:45:07;;;;;;;17.63;9.60;;;21.40;1.00;;;;;;5013331;28;20449;-81
2022/09/13 10:48:11;;;;;;;16.97;10.00;;;21.50;1.00;;;;;;4935986;29;20433;-73
2022/09/13 10:51:02;;;;;;;17.20;10.27;;;21.60;1.00;;;;;;4935876;29;20504;-80
2022/09/13 10:54:05;;;;;;;19.90;10.97;;;21.70;1.00;;;;;;4909133;29;20441;-80
2022/09/13 10:56:44;;;;;;;15.33;10.07;;;21.80;1.00;;;;;;4962289;28;20974;-79
2022/09/13 10:59:37;;;;;;;13.13;9.60;;;21.70;1.00;;;;;;5032076;28;20494;-79
2022/09/13 11:02:21;;;;;;;14.43;9.60;;;21.80;1.00;;;;;;5002951;28;20422;-80
2022/09/13 11:05:11;;;;;;;20.57;10.07;;;21.90;1.00;;;;;;5026326;28;20426;-81
2022/09/13 11:08:15;;;;;;;13.77;10.20;;;22.20;1.00;;;;;;5018644;28;20517;-81
2022/09/13 11:14:40;;;;;;;16.20;9.63;;;22.50;1.00;;;;;;4960477;28;20532;-81
2022/09/13 11:17:24;;;;;;;20.30;11.23;;;22.50;1.00;;;;;;4971169;28;20429;-82
2022/09/13 11:20:12;;;;;;;22.77;12.03;;;22.50;1.00;;;;;;4954679;28;20822;-82
2022/09/13 11:23:10;;;;;;;14.83;9.90;;;22.60;1.00;;;;;;4965575;28;20508;-79
2022/09/13 11:26:11;;;;;;;16.33;10.13;;;22.70;1.00;;;;;;5031925;28;20427;-78
2022/09/13 11:29:12;;;;;;;12.23;9.50;;;22.80;1.00;;;;;;5028899;28;20423;-78
2022/09/13 11:31:58;;;;;;;16.60;9.60;;;23.00;1.00;;;;;;5031312;28;20512;-78
2022/09/13 11:34:35;;;;;;;14.10;9.50;;;23.30;1.00;;;;;;5002364;28;20440;-78
2022/09/13 11:37:31;;;;;;;12.67;9.93;;;23.30;1.00;;;;;;5032254;28;20525;-80
2022/09/13 11:40:21;;;;;;;12.37;8.90;;;23.20;1.00;;;;;;5012490;28;20738;-78
2022/09/13 11:43:01;;;;;;;15.27;9.40;;;23.30;1.00;;;;;;5029374;28;20954;-78
2022/09/13 11:45:32;;;;;;;15.03;9.43;;;23.30;1.00;;;;;;5027371;28;20427;-77
2022/09/13 11:48:19;;;;;;;21.70;8.67;;;23.20;1.00;;;;;;5072475;28;20481;-78
2022/09/13 11:51:24;;;;;;;15.17;8.67;;;23.20;1.00;;;;;;5087225;28;20401;-77
2022/09/13 11:54:12;;;;;;;13.33;9.07;;;22.80;1.00;;;;;;5075638;28;20750;-80
2022/09/13 11:57:01;;;;;;;15.03;8.67;;;22.70;1.00;;;;;;5073851;28;20429;-80
2022/09/13 11:59:41;;;;;;;12.43;8.30;;;22.70;1.00;;;;;;5078837;28;20401;-80
2022/09/13 12:02:37;;;;;;;12.07;8.73;;;22.90;1.00;;;;;;5076688;28;20453;-80
2022/09/13 12:05:20;;;;;;;17.10;8.10;;;23.10;1.00;;;;;;5082300;28;20386;-80
2022/09/13 12:08:22;;;;;;;13.10;8.23;;;23.20;1.00;;;;;;5074293;28;20444;-78
2022/09/13 12:10:57;;;;;;;15.00;9.03;;;23.40;1.00;;;;;;5074845;28;20940;-77
2022/09/13 12:13:26;;;;;;;13.53;8.03;;;23.20;1.00;;;;;;5086316;28;20939;-78
2022/09/13 12:15:58;;;;;;;18.70;9.70;;;23.50;1.00;;;;;;5073668;28;20485;-78
2022/09/13 12:18:54;;;;;;;10.20;8.17;;;23.20;1.00;;;;;;5085876;28;20827;-79
2022/09/13 12:21:43;;;;;;;14.73;9.13;;;23.40;1.00;;;;;;5074133;28;20927;-79
2022/09/13 12:24:49;;;;;;;13.60;8.63;;;23.70;1.00;;;;;;5091865;28;20441;-80
2022/09/13 12:27:47;;;;;;;12.63;7.40;;;23.80;1.00;;;;;;5068267;28;20489;-79
2022/09/13 12:30:32;;;;;;;13.93;8.00;;;24.10;1.00;;;;;;5074684;28;20460;-79
2022/09/13 12:33:15;;;;;;;10.00;7.50;;;24.20;1.00;;;;;;5075358;28;20424;-79
2022/09/13 12:36:11;;;;;;;11.07;7.77;;;24.10;1.00;;;;;;5087710;28;20429;-79
2022/09/13 12:38:51;;;;;;;13.47;7.90;;;24.10;1.00;;;;;;5075759;28;20934;-78
2022/09/13 12:41:33;;;;;;;9.97;7.47;;;24.10;1.00;;;;;;5082720;28;20405;-78
2022/09/13 12:44:41;;;;;;;17.63;8.00;;;24.00;1.00;;;;;;5082285;28;20455;-79
2022/09/13 12:47:23;;;;;;;14.33;6.70;;;24.20;1.00;;;;;;5030198;28;20424;-79
2022/09/13 12:50:11;;;;;;;10.83;6.50;;;24.10;1.00;;;;;;5013476;28;20445;-78
2022/09/13 12:53:05;;;;;;;13.17;8.53;;;24.20;1.00;;;;;;5031187;28;20418;-79
2022/09/13 12:55:51;;;;;;;8.77;7.87;;;24.00;1.00;;;;;;5031240;28;20405;-81
2022/09/13 12:58:41;;;;;;;9.80;7.80;;;23.80;1.00;;;;;;5028014;28;20982;-81
2022/09/13 13:01:16;;;;;;;13.17;7.87;;;23.70;1.00;;;;;;5031851;28;20898;-80
2022/09/13 13:04:31;;;;;;;11.70;8.40;;;23.80;1.00;;;;;;5025434;28;20932;-81
2022/09/13 13:07:03;;;;;;;13.67;7.67;;;23.60;1.00;;;;;;4940838;29;20516;-81
2022/09/13 13:09:44;;;;;;;12.50;7.50;;;23.70;1.00;;;;;;4961495;28;21953;-80
2022/09/13 13:12:31;;;;;;;11.13;7.83;;;23.90;1.00;;;;;;4966629;28;20429;-80
2022/09/13 13:15:06;;;;;;;7.43;6.60;;;24.00;1.00;;;;;;4960298;28;20441;-80
2022/09/13 13:17:44;;;;;;;13.00;7.33;;;24.10;1.00;;;;;;4950031;28;20602;-78
2022/09/13 13:20:47;;;;;;;11.27;7.10;;;24.30;1.00;;;;;;4962003;28;20779;-78
2022/09/13 13:23:37;;;;;;;14.70;7.63;;;24.50;1.00;;;;;;4963766;28;20421;-79
2022/09/13 13:26:40;;;;;;;9.37;7.10;;;24.60;1.00;;;;;;4996035;28;20445;-79
2022/09/13 13:29:19;;;;;;;15.13;8.03;;;24.80;1.00;;;;;;5003545;28;20425;-80
2022/09/13 13:32:08;;;;;;;7.97;6.77;;;24.70;1.00;;;;;;4985215;28;20801;-80
2022/09/13 13:34:39;;;;;;;13.03;6.37;;;24.80;1.00;;;;;;4995320;28;20396;-78
2022/09/13 13:37:31;;;;;;;9.33;6.90;;;24.80;1.00;;;;;;5011380;28;20968;-79
2022/09/13 13:40:24;;;;;;;8.20;6.40;;;24.90;1.00;;;;;;5015287;28;20414;-79
2022/09/13 13:43:32;;;;;;;13.03;6.73;;;24.80;1.00;;;;;;5027214;28;20481;-81
2022/09/13 13:46:11;;;;;;;14.17;6.60;;;24.80;1.00;;;;;;5034389;28;20468;-82
2022/09/13 13:48:47;;;;;;;8.73;6.17;;;24.80;1.00;;;;;;5034445;28;20504;-81
2022/09/13 13:51:34;;;;;;;15.27;6.90;;;25.00;1.00;;;;;;5034396;28;20403;-81
2022/09/13 13:54:40;;;;;;;6.90;5.47;;;25.20;1.00;;;;;;5034917;28;20430;-82
2022/09/13 13:57:31;;;;;;;17.23;6.77;;;25.40;1.00;;;;;;4966214;28;20531;-81
2022/09/13 14:00:27;;;;;;;13.37;6.73;;;25.30;1.00;;;;;;4966590;28;20476;-80
2022/09/13 14:03:29;;;;;;;20.70;6.20;;;25.00;1.00;;;;;;4970011;28;20964;-81
2022/09/13 14:05:58;;;;;;;7.40;5.00;;;25.40;1.00;;;;;;4975096;28;20890;-80
2022/09/13 14:09:10;;;;;;;9.73;5.63;;;25.50;1.00;;;;;;4975368;28;20525;-77
2022/09/13 14:11:45;;;;;;;9.67;5.70;;;25.60;1.00;;;;;;4974054;28;20445;-81
2022/09/13 14:14:56;;;;;;;8.90;5.80;;;25.50;1.00;;;;;;4974909;28;20580;-80
2022/09/13 14:17:35;;;;;;;15.47;5.20;;;25.50;1.00;;;;;;4975015;28;20497;-80
2022/09/13 14:23:35;;;;;;;10.70;5.63;;;25.20;1.00;;;;;;5037278;28;20425;-80
2022/09/13 14:26:10;;;;;;;9.13;5.10;;;24.90;1.00;;;;;;5047180;28;20448;-76
2022/09/13 14:28:36;;;;;;;9.60;4.90;;;24.90;1.00;;;;;;5053627;28;20405;-78
2022/09/13 14:31:05;;;;;;;8.77;5.70;;;24.80;1.00;;;;;;5045923;28;20434;-78
2022/09/13 14:33:47;;;;;;;11.20;5.33;;;24.60;1.00;;;;;;5063320;28;20439;-78
2022/09/13 14:36:21;;;;;;;7.73;5.60;;;24.30;1.00;;;;;;5084877;28;20870;-76
2022/09/13 14:38:57;;;;;;;9.03;6.07;;;24.30;1.00;;;;;;5079462;28;20486;-77
2022/09/13 14:41:41;;;;;;;6.83;5.47;;;24.20;1.00;;;;;;5076853;28;20507;-76
2022/09/13 14:44:29;;;;;;;13.10;6.10;;;24.10;1.00;;;;;;5078302;28;20972;-77
2022/09/13 14:47:21;;;;;;;6.60;5.20;;;23.90;1.00;;;;;;5080978;28;20408;-77
2022/09/13 14:49:53;;;;;;;13.57;5.93;;;23.80;1.00;;;;;;5090580;28;20427;-76
2022/09/13 14:52:29;;;;;;;5.80;5.20;;;23.70;1.00;;;;;;5095404;28;20390;-77
2022/09/13 14:55:03;;;;;;;8.17;5.83;;;23.60;1.00;;;;;;5082660;28;20971;-76
2022/09/13 14:57:36;;;;;;;11.50;6.40;;;23.50;1.00;;;;;;5074768;28;20463;-75
2022/09/13 15:00:28;;;;;;;11.33;5.83;;;23.40;1.00;;;;;;5082948;28;20797;-75
2022/09/13 15:03:14;;;;;;;7.17;5.13;;;23.40;1.00;;;;;;5078082;28;20425;-77
2022/09/13 15:05:48;;;;;;;6.20;5.47;;;23.50;1.00;;;;;;5078283;28;20402;-76
2022/09/13 15:08:38;;;;;;;7.23;6.10;;;23.40;1.00;;;;;;5082858;28;20939;-76
2022/09/13 15:11:06;;;;;;;8.50;5.20;;;23.40;1.00;;;;;;5081862;28;20431;-80
2022/09/13 15:13:33;;;;;;;8.50;5.23;;;23.40;1.00;;;;;;5093724;28;20747;-79
2022/09/13 15:16:31;;;;;;;9.63;5.47;;;23.40;1.00;;;;;;5081970;28;20787;-79
2022/09/13 15:19:17;;;;;;;8.43;6.13;;;23.30;1.00;;;;;;5012915;28;20584;-80
2022/09/13 15:22:23;;;;;;;8.70;6.30;;;23.30;1.00;;;;;;4993692;28;20505;-79
2022/09/13 15:25:05;;;;;;;9.27;5.87;;;23.20;1.00;;;;;;5010070;28;20943;-79
2022/09/13 15:27:43;;;;;;;11.53;6.40;;;23.10;1.00;;;;;;5012790;28;20429;-79
2022/09/13 15:30:26;;;;;;;10.63;5.53;;;23.00;1.00;;;;;;5012740;28;20776;-78
2022/09/13 15:33:35;;;;;;;13.83;5.27;;;23.00;1.00;;;;;;5001192;28;20523;-79
2022/09/13 15:36:19;;;;;;;6.87;5.57;;;23.00;1.00;;;;;;5011586;28;20442;-78
2022/09/13 15:39:06;;;;;;;9.83;5.50;;;23.00;1.00;;;;;;4995915;28;20461;-78
2022/09/13 15:41:37;;;;;;;12.17;6.40;;;22.90;1.00;;;;;;5005224;28;20793;-79
2022/09/13 15:44:11;;;;;;;11.30;5.00;;;22.90;1.00;;;;;;5011559;28;20910;-79
2022/09/13 15:46:53;;;;;;;6.23;5.40;;;22.90;1.00;;;;;;4995989;28;20512;-80
2022/09/13 15:49:31;;;;;;;6.40;4.80;;;22.80;1.00;;;;;;5012108;28;20456;-78